Time;durP1;ratioP1;P1;durP2;ratioP2;P2;SDS_P1;SDS_P2;PMS_P1;PMS_P2;Temp;Humidity;BMP_temperature;BMP_pressure;BME280_temperature;BME280_humidity;BME280_pressure;Samples;Min_cycle;Max_cycle;Signal;HPM_P1;HPM_P2
2022/04/13 00:00:10;;;;;;;6.75;2.88;;;;;;;;;;520546;28;1475;-86
2022/04/13 00:00:28;;;;;;;6.72;2.85;;;;;;;;;;522991;28;1558;-86
2022/04/13 00:00:44;;;;;;;4.68;2.70;;;;;;;;;;520600;28;1504;-86
2022/04/13 00:00:59;;;;;;;4.87;2.70;;;;;;;;;;520135;28;1552;-86
2022/04/13 00:01:14;;;;;;;4.80;2.90;;;;;;;;;;521062;28;1535;-86
2022/04/13 00:01:30;;;;;;;5.90;3.00;;;;;;;;;;522486;28;1364;-86
2022/04/13 00:01:45;;;;;;;6.57;2.95;;;;;;;;;;522444;28;1610;-86
2022/04/13 00:02:02;;;;;;;6.03;2.90;;;;;;;;;;522486;28;1454;-86
2022/04/13 00:02:18;;;;;;;4.53;2.80;;;;;;;;;;521010;28;1417;-85
2022/04/13 00:02:33;;;;;;;5.87;2.90;;;;;;;;;;518441;28;1658;-86
2022/04/13 00:02:49;;;;;;;6.60;3.00;;;;;;;;;;521151;28;1382;-86
2022/04/13 00:03:04;;;;;;;5.17;3.10;;;;;;;;;;518371;28;1650;-86
2022/04/13 00:03:19;;;;;;;4.63;3.08;;;;;;;;;;517076;28;1405;-87
2022/04/13 00:03:36;;;;;;;5.03;2.83;;;;;;;;;;517072;28;1428;-86
2022/04/13 00:03:52;;;;;;;4.60;2.72;;;;;;;;;;515963;28;1486;-87
2022/04/13 00:04:07;;;;;;;3.77;2.83;;;;;;;;;;516692;28;1523;-86
2022/04/13 00:04:24;;;;;;;4.88;3.00;;;;;;;;;;516537;28;1551;-87
2022/04/13 00:04:39;;;;;;;5.65;2.90;;;;;;;;;;518126;28;1561;-86
2022/04/13 00:04:54;;;;;;;5.70;2.93;;;;;;;;;;520898;28;1438;-86
2022/04/13 00:05:10;;;;;;;5.37;3.00;;;;;;;;;;518637;28;1536;-86
2022/04/13 00:05:26;;;;;;;5.80;2.90;;;;;;;;;;515914;28;1694;-87
2022/04/13 00:05:41;;;;;;;5.20;2.90;;;;;;;;;;516228;28;1413;-85
2022/04/13 00:05:56;;;;;;;4.18;2.90;;;;;;;;;;517486;28;1380;-87
2022/04/13 00:06:12;;;;;;;4.40;3.00;;;;;;;;;;515921;28;1531;-86
2022/04/13 00:06:27;;;;;;;5.30;2.90;;;;;;;;;;517447;28;1412;-86
2022/04/13 00:06:43;;;;;;;5.33;2.80;;;;;;;;;;516099;28;1539;-86
2022/04/13 00:06:58;;;;;;;5.37;3.00;;;;;;;;;;517047;28;1444;-86
2022/04/13 00:07:14;;;;;;;5.40;3.10;;;;;;;;;;516328;28;1402;-86
2022/04/13 00:07:29;;;;;;;5.93;3.03;;;;;;;;;;516508;28;1699;-86
2022/04/13 00:07:45;;;;;;;6.10;2.80;;;;;;;;;;516754;28;1412;-86
2022/04/13 00:08:05;;;;;;;4.63;2.73;;;;;;;;;;516872;28;1505;-86
2022/04/13 00:08:21;;;;;;;5.07;3.00;;;;;;;;;;518697;28;1620;-86
2022/04/13 00:08:36;;;;;;;4.70;3.00;;;;;;;;;;518492;28;1562;-86
2022/04/13 00:08:55;;;;;;;4.77;2.80;;;;;;;;;;518692;28;1368;-86
2022/04/13 00:09:11;;;;;;;4.15;2.85;;;;;;;;;;520147;28;1467;-86
2022/04/13 00:09:26;;;;;;;4.00;2.83;;;;;;;;;;520724;28;1435;-86
2022/04/13 00:09:42;;;;;;;4.87;2.80;;;;;;;;;;522503;28;1588;-86
2022/04/13 00:09:57;;;;;;;5.63;2.75;;;;;;;;;;520631;28;1478;-86
2022/04/13 00:10:13;;;;;;;5.80;2.83;;;;;;;;;;519007;28;1576;-87
2022/04/13 00:10:28;;;;;;;5.50;2.95;;;;;;;;;;520176;28;1557;-86
2022/04/13 00:10:44;;;;;;;4.90;3.10;;;;;;;;;;519238;28;1588;-86
2022/04/13 00:11:00;;;;;;;4.93;3.08;;;;;;;;;;518993;28;1914;-86
2022/04/13 00:11:17;;;;;;;4.72;2.83;;;;;;;;;;519479;28;1425;-86
2022/04/13 00:11:34;;;;;;;4.55;2.80;;;;;;;;;;520879;28;1489;-86
2022/04/13 00:11:51;;;;;;;4.60;2.72;;;;;;;;;;521039;28;1441;-86
2022/04/13 00:12:08;;;;;;;3.75;2.70;;;;;;;;;;521642;28;1610;-86
2022/04/13 00:12:23;;;;;;;5.00;2.83;;;;;;;;;;523351;28;1512;-86
2022/04/13 00:12:39;;;;;;;5.28;2.90;;;;;;;;;;522359;28;1477;-86
2022/04/13 00:12:54;;;;;;;4.57;2.70;;;;;;;;;;521503;28;1712;-86
2022/04/13 00:13:09;;;;;;;4.40;2.80;;;;;;;;;;523136;28;1465;-86
2022/04/13 00:13:25;;;;;;;5.10;3.03;;;;;;;;;;519254;28;1415;-87
2022/04/13 00:13:41;;;;;;;5.17;3.00;;;;;;;;;;519153;28;1422;-86
2022/04/13 00:13:56;;;;;;;4.55;2.72;;;;;;;;;;517337;28;1395;-86
2022/04/13 00:14:11;;;;;;;4.18;2.80;;;;;;;;;;517064;28;1767;-86
2022/04/13 00:14:27;;;;;;;4.80;2.93;;;;;;;;;;517271;28;1404;-86
2022/04/13 00:14:42;;;;;;;6.22;3.20;;;;;;;;;;516778;28;1522;-86
2022/04/13 00:14:58;;;;;;;5.97;3.13;;;;;;;;;;519790;28;1571;-86
2022/04/13 00:15:13;;;;;;;4.38;2.80;;;;;;;;;;519065;28;1695;-86
2022/04/13 00:15:29;;;;;;;3.93;2.90;;;;;;;;;;519371;28;1417;-86
2022/04/13 00:15:44;;;;;;;4.67;2.90;;;;;;;;;;520963;28;1564;-86
2022/04/13 00:15:59;;;;;;;4.90;2.78;;;;;;;;;;523083;28;1492;-87
2022/04/13 00:16:15;;;;;;;4.20;2.73;;;;;;;;;;522672;28;1638;-86
2022/04/13 00:16:30;;;;;;;4.50;2.87;;;;;;;;;;521818;28;1471;-86
2022/04/13 00:16:46;;;;;;;5.32;2.90;;;;;;;;;;522588;28;1512;-86
2022/04/13 00:17:02;;;;;;;4.85;2.70;;;;;;;;;;522810;28;1445;-86
2022/04/13 00:17:18;;;;;;;4.72;2.83;;;;;;;;;;522422;28;1382;-86
2022/04/13 00:17:36;;;;;;;6.03;3.23;;;;;;;;;;523057;28;1474;-86
2022/04/13 00:17:51;;;;;;;5.47;3.25;;;;;;;;;;522910;28;1570;-86
2022/04/13 00:18:07;;;;;;;4.25;2.90;;;;;;;;;;523948;28;1496;-86
2022/04/13 00:18:23;;;;;;;4.30;2.85;;;;;;;;;;523754;28;1434;-87
2022/04/13 00:18:39;;;;;;;6.43;2.95;;;;;;;;;;520336;28;1281;-86
2022/04/13 00:18:55;;;;;;;7.10;2.97;;;;;;;;;;518889;28;1479;-86
2022/04/13 00:19:11;;;;;;;5.00;2.88;;;;;;;;;;515933;28;1447;-87
2022/04/13 00:19:26;;;;;;;4.80;3.00;;;;;;;;;;516535;28;1570;-86
2022/04/13 00:19:42;;;;;;;5.22;3.00;;;;;;;;;;517467;28;1462;-87
2022/04/13 00:19:58;;;;;;;3.73;2.70;;;;;;;;;;519621;28;1648;-87
2022/04/13 00:20:14;;;;;;;3.42;2.70;;;;;;;;;;519000;28;1486;-86
2022/04/13 00:20:29;;;;;;;4.03;2.60;;;;;;;;;;521351;28;1892;-86
2022/04/13 00:20:45;;;;;;;5.20;2.60;;;;;;;;;;519404;28;1521;-86
2022/04/13 00:21:00;;;;;;;5.20;2.80;;;;;;;;;;519392;28;1448;-86
2022/04/13 00:21:16;;;;;;;4.27;2.90;;;;;;;;;;519557;28;1656;-86
2022/04/13 00:21:31;;;;;;;4.63;2.93;;;;;;;;;;517575;28;1412;-86
2022/04/13 00:21:47;;;;;;;4.70;2.90;;;;;;;;;;517636;28;1564;-87
2022/04/13 00:22:03;;;;;;;4.38;2.90;;;;;;;;;;515765;28;1590;-87
2022/04/13 00:22:19;;;;;;;5.28;2.90;;;;;;;;;;516341;28;1447;-86
2022/04/13 00:22:34;;;;;;;5.43;2.90;;;;;;;;;;517803;28;1376;-87
2022/04/13 00:22:50;;;;;;;5.70;3.00;;;;;;;;;;516694;28;1507;-86
2022/04/13 00:23:06;;;;;;;5.73;3.00;;;;;;;;;;518298;28;1446;-86
2022/04/13 00:23:22;;;;;;;5.32;2.97;;;;;;;;;;517979;28;1491;-86
2022/04/13 00:23:37;;;;;;;6.25;2.88;;;;;;;;;;520192;28;1506;-87
2022/04/13 00:23:53;;;;;;;6.07;2.70;;;;;;;;;;520215;28;1744;-86
2022/04/13 00:24:08;;;;;;;5.23;2.80;;;;;;;;;;521727;28;1508;-86
2022/04/13 00:24:24;;;;;;;4.97;3.00;;;;;;;;;;523579;28;1679;-86
2022/04/13 00:24:39;;;;;;;4.70;2.92;;;;;;;;;;523203;28;1457;-86
2022/04/13 00:24:55;;;;;;;5.23;2.90;;;;;;;;;;521881;28;1580;-86
2022/04/13 00:25:10;;;;;;;5.73;2.80;;;;;;;;;;518991;28;1426;-86
2022/04/13 00:25:26;;;;;;;5.25;2.78;;;;;;;;;;518265;28;1675;-86
2022/04/13 00:25:43;;;;;;;4.17;2.90;;;;;;;;;;518628;28;1430;-86
2022/04/13 00:25:58;;;;;;;3.47;2.67;;;;;;;;;;517400;28;1646;-86
2022/04/13 00:26:14;;;;;;;3.70;2.72;;;;;;;;;;518781;28;1558;-86
2022/04/13 00:26:30;;;;;;;4.72;2.90;;;;;;;;;;519359;28;1348;-86
2022/04/13 00:26:45;;;;;;;5.13;2.80;;;;;;;;;;520043;28;1818;-86
2022/04/13 00:27:00;;;;;;;4.63;2.67;;;;;;;;;;519800;28;1513;-86
2022/04/13 00:27:16;;;;;;;4.03;2.80;;;;;;;;;;519767;28;1453;-87
2022/04/13 00:27:31;;;;;;;5.38;3.00;;;;;;;;;;519194;28;1745;-86
2022/04/13 00:27:47;;;;;;;6.27;3.03;;;;;;;;;;516661;28;1428;-86
2022/04/13 00:28:02;;;;;;;5.10;3.00;;;;;;;;;;517379;28;1633;-86
2022/04/13 00:28:18;;;;;;;4.72;3.03;;;;;;;;;;516322;28;1357;-86
2022/04/13 00:28:34;;;;;;;4.50;3.17;;;;;;;;;;518742;28;1706;-87
2022/04/13 00:28:49;;;;;;;4.55;3.25;;;;;;;;;;517105;28;1534;-86
2022/04/13 00:29:05;;;;;;;4.30;3.13;;;;;;;;;;519168;28;1510;-86
2022/04/13 00:29:20;;;;;;;3.95;2.90;;;;;;;;;;521185;28;1689;-87
2022/04/13 00:29:36;;;;;;;4.97;2.90;;;;;;;;;;521234;28;1498;-85
2022/04/13 00:29:51;;;;;;;5.67;3.10;;;;;;;;;;518387;28;1469;-86
2022/04/13 00:30:07;;;;;;;4.28;3.00;;;;;;;;;;517725;28;1628;-87
2022/04/13 00:30:23;;;;;;;3.33;2.80;;;;;;;;;;516676;28;1428;-86
2022/04/13 00:30:38;;;;;;;4.87;2.80;;;;;;;;;;517780;28;1443;-86
2022/04/13 00:30:53;;;;;;;6.15;2.90;;;;;;;;;;516165;28;1989;-86
2022/04/13 00:31:09;;;;;;;5.40;2.90;;;;;;;;;;518236;28;1465;-86
2022/04/13 00:31:24;;;;;;;4.77;3.03;;;;;;;;;;518858;28;1412;-86
2022/04/13 00:31:40;;;;;;;5.20;3.22;;;;;;;;;;518780;28;1729;-85
2022/04/13 00:31:59;;;;;;;5.60;3.03;;;;;;;;;;519322;28;1508;-87
2022/04/13 00:32:15;;;;;;;4.22;2.90;;;;;;;;;;518297;28;1412;-85
2022/04/13 00:32:32;;;;;;;3.83;2.90;;;;;;;;;;519938;28;1498;-86
2022/04/13 00:32:48;;;;;;;4.60;3.05;;;;;;;;;;518747;28;1444;-86
2022/04/13 00:33:03;;;;;;;6.50;3.13;;;;;;;;;;517575;28;1529;-87
2022/04/13 00:33:19;;;;;;;6.53;2.93;;;;;;;;;;517542;28;1573;-86
2022/04/13 00:33:35;;;;;;;4.97;2.83;;;;;;;;;;518039;28;1508;-86
2022/04/13 00:33:50;;;;;;;5.28;2.90;;;;;;;;;;517468;28;1492;-86
2022/04/13 00:34:06;;;;;;;6.30;3.03;;;;;;;;;;520946;28;1446;-86
2022/04/13 00:34:21;;;;;;;5.40;3.07;;;;;;;;;;522773;28;1381;-87
2022/04/13 00:34:39;;;;;;;5.28;2.80;;;;;;;;;;521223;28;1403;-86
2022/04/13 00:34:57;;;;;;;5.82;2.80;;;;;;;;;;519687;28;1535;-86
2022/04/13 00:35:12;;;;;;;5.20;3.00;;;;;;;;;;517235;28;1390;-86
2022/04/13 00:35:28;;;;;;;5.22;3.17;;;;;;;;;;517547;28;1361;-86
2022/04/13 00:35:43;;;;;;;4.77;3.03;;;;;;;;;;517961;28;1360;-86
2022/04/13 00:35:59;;;;;;;5.15;3.13;;;;;;;;;;517538;28;1510;-86
2022/04/13 00:36:14;;;;;;;5.73;3.10;;;;;;;;;;518361;28;1556;-86
2022/04/13 00:36:29;;;;;;;5.40;3.08;;;;;;;;;;520028;28;1657;-87
2022/04/13 00:36:45;;;;;;;4.97;3.17;;;;;;;;;;521377;28;1410;-86
2022/04/13 00:37:00;;;;;;;5.63;3.00;;;;;;;;;;520749;28;1505;-86
2022/04/13 00:37:16;;;;;;;6.67;3.20;;;;;;;;;;523142;28;1460;-86
2022/04/13 00:37:32;;;;;;;6.13;3.30;;;;;;;;;;524027;28;1501;-86
2022/04/13 00:37:48;;;;;;;5.03;3.00;;;;;;;;;;524576;28;1326;-87
2022/04/13 00:38:04;;;;;;;5.17;3.00;;;;;;;;;;524573;28;1455;-86
2022/04/13 00:38:21;;;;;;;5.40;3.15;;;;;;;;;;524764;28;1516;-86
2022/04/13 00:38:37;;;;;;;6.97;3.28;;;;;;;;;;520915;28;1427;-86
2022/04/13 00:38:52;;;;;;;6.87;3.20;;;;;;;;;;520530;28;1564;-86
2022/04/13 00:39:08;;;;;;;5.43;3.10;;;;;;;;;;520569;28;1865;-86
2022/04/13 00:39:24;;;;;;;4.63;2.88;;;;;;;;;;520800;28;1617;-86
2022/04/13 00:39:39;;;;;;;4.95;3.00;;;;;;;;;;518836;28;1667;-86
2022/04/13 00:39:55;;;;;;;4.53;3.10;;;;;;;;;;521364;28;1510;-86
2022/04/13 00:40:11;;;;;;;5.50;3.17;;;;;;;;;;519433;28;1360;-86
2022/04/13 00:40:26;;;;;;;6.82;3.10;;;;;;;;;;516922;28;1549;-85
2022/04/13 00:40:42;;;;;;;6.03;2.90;;;;;;;;;;518682;28;1484;-86
2022/04/13 00:40:57;;;;;;;5.03;2.87;;;;;;;;;;518977;28;1640;-85
2022/04/13 00:41:13;;;;;;;4.28;2.90;;;;;;;;;;520235;28;1544;-86
2022/04/13 00:41:28;;;;;;;5.10;2.90;;;;;;;;;;519484;28;1458;-86
2022/04/13 00:41:44;;;;;;;7.33;3.10;;;;;;;;;;520238;28;1391;-86
2022/04/13 00:42:02;;;;;;;7.23;3.20;;;;;;;;;;520125;28;1469;-86
2022/04/13 00:42:18;;;;;;;6.10;3.30;;;;;;;;;;521927;28;1512;-86
2022/04/13 00:42:33;;;;;;;4.80;3.25;;;;;;;;;;523784;28;1428;-86
2022/04/13 00:42:49;;;;;;;5.27;3.20;;;;;;;;;;523623;28;1772;-86
2022/04/13 00:43:13;;;;;;;6.19;3.46;;;;;;;;;;476184;28;10000611;-86
2022/04/13 00:43:28;;;;;;;4.82;3.22;;;;;;;;;;519978;28;1420;-86
2022/04/13 00:43:44;;;;;;;4.97;3.37;;;;;;;;;;521634;28;1645;-86
2022/04/13 00:44:04;;;;;;;5.40;3.30;;;;;;;;;;519755;28;1576;-86
2022/04/13 00:44:20;;;;;;;5.28;3.20;;;;;;;;;;519698;28;1558;-87
2022/04/13 00:44:35;;;;;;;5.90;3.17;;;;;;;;;;521682;28;1546;-86
2022/04/13 00:44:51;;;;;;;5.90;3.17;;;;;;;;;;520059;28;1753;-86
2022/04/13 00:45:06;;;;;;;4.53;3.20;;;;;;;;;;519585;28;1419;-87
2022/04/13 00:45:22;;;;;;;4.85;3.30;;;;;;;;;;518640;28;1377;-86
2022/04/13 00:45:37;;;;;;;5.25;3.20;;;;;;;;;;521055;28;1499;-86
2022/04/13 00:45:53;;;;;;;5.20;3.10;;;;;;;;;;520633;28;1717;-86
2022/04/13 00:46:09;;;;;;;5.13;3.25;;;;;;;;;;519731;28;1520;-86
2022/04/13 00:46:24;;;;;;;5.37;3.30;;;;;;;;;;521093;28;1596;-86
2022/04/13 00:46:39;;;;;;;4.82;3.13;;;;;;;;;;518982;28;1559;-86
2022/04/13 00:47:01;;;;;;;4.23;3.10;;;;;;;;;;518779;28;1557;-87
2022/04/13 00:47:18;;;;;;;4.57;3.30;;;;;;;;;;519494;28;1472;-86
2022/04/13 00:47:39;;;;;;;6.18;3.22;;;;;;;;;;519295;28;1508;-86
2022/04/13 00:47:55;;;;;;;5.72;3.10;;;;;;;;;;520425;28;1704;-87
2022/04/13 00:48:32;;;;;;;5.18;3.20;;;;;;;;;;519809;28;1529;-86
2022/04/13 00:48:47;;;;;;;4.90;3.20;;;;;;;;;;522006;28;1665;-86
2022/04/13 00:49:06;;;;;;;4.38;3.20;;;;;;;;;;521729;28;1527;-86
2022/04/13 00:49:24;;;;;;;5.03;3.30;;;;;;;;;;518754;28;1506;-86
2022/04/13 00:49:40;;;;;;;4.38;3.20;;;;;;;;;;515430;28;1529;-85
2022/04/13 00:49:56;;;;;;;7.07;3.30;;;;;;;;;;515603;28;1460;-85
2022/04/13 00:50:13;;;;;;;7.50;3.47;;;;;;;;;;517644;28;1574;-86
2022/04/13 00:50:28;;;;;;;4.85;3.35;;;;;;;;;;517927;28;1451;-86
2022/04/13 00:50:44;;;;;;;3.72;3.05;;;;;;;;;;519183;28;1491;-86
2022/04/13 00:51:01;;;;;;;5.70;3.30;;;;;;;;;;519703;28;1910;-86
2022/04/13 00:51:16;;;;;;;6.47;3.50;;;;;;;;;;519964;28;1549;-86
2022/04/13 00:51:32;;;;;;;5.85;3.50;;;;;;;;;;520148;28;1516;-86
2022/04/13 00:51:47;;;;;;;5.03;3.60;;;;;;;;;;519927;28;1468;-87
2022/04/13 00:52:05;;;;;;;6.13;3.43;;;;;;;;;;519699;28;1383;-86
2022/04/13 00:52:23;;;;;;;6.97;3.35;;;;;;;;;;515605;28;1295;-87
2022/04/13 00:52:43;;;;;;;5.60;3.40;;;;;;;;;;515640;28;1548;-86
2022/04/13 00:52:59;;;;;;;5.22;3.55;;;;;;;;;;516646;28;1504;-87
2022/04/13 00:53:16;;;;;;;5.47;3.50;;;;;;;;;;516980;28;1737;-86
2022/04/13 00:53:34;;;;;;;5.28;3.30;;;;;;;;;;519170;28;1318;-86
2022/04/13 00:53:51;;;;;;;4.63;3.22;;;;;;;;;;520980;28;1592;-87
2022/04/13 00:54:09;;;;;;;5.40;3.30;;;;;;;;;;519491;28;1544;-86
2022/04/13 00:54:25;;;;;;;5.05;3.30;;;;;;;;;;522206;28;1423;-86
2022/04/13 00:54:47;;;;;;;4.93;3.30;;;;;;;;;;517936;28;1777;-86
2022/04/13 00:55:07;;;;;;;4.68;3.22;;;;;;;;;;515575;28;1450;-87
2022/04/13 00:55:24;;;;;;;3.75;3.13;;;;;;;;;;515373;28;1408;-86
2022/04/13 00:55:42;;;;;;;4.03;3.15;;;;;;;;;;514901;28;1393;-86
2022/04/13 00:55:59;;;;;;;5.10;3.15;;;;;;;;;;517547;28;1367;-86
2022/04/13 00:56:16;;;;;;;5.28;3.20;;;;;;;;;;515262;28;1259;-86
2022/04/13 00:56:35;;;;;;;4.78;3.10;;;;;;;;;;518276;28;1600;-86
2022/04/13 00:56:53;;;;;;;4.65;3.22;;;;;;;;;;517370;28;1563;-86
2022/04/13 00:57:11;;;;;;;5.35;3.40;;;;;;;;;;518005;28;1544;-86
2022/04/13 00:57:27;;;;;;;5.85;3.40;;;;;;;;;;517294;28;1509;-86
2022/04/13 00:57:43;;;;;;;5.10;3.22;;;;;;;;;;515600;28;1368;-87
2022/04/13 00:57:59;;;;;;;4.83;3.30;;;;;;;;;;517249;28;1625;-86
2022/04/13 00:58:15;;;;;;;5.00;3.20;;;;;;;;;;519278;28;1386;-86
2022/04/13 00:58:33;;;;;;;5.63;3.17;;;;;;;;;;519491;28;1513;-86
2022/04/13 00:58:51;;;;;;;5.40;3.30;;;;;;;;;;518706;28;1663;-86
2022/04/13 00:59:10;;;;;;;6.07;3.30;;;;;;;;;;516898;28;1630;-87
2022/04/13 00:59:25;;;;;;;6.05;3.30;;;;;;;;;;517355;28;1528;-86
2022/04/13 00:59:44;;;;;;;5.07;3.20;;;;;;;;;;516969;28;1460;-86
2022/04/13 01:00:01;;;;;;;4.65;3.30;;;;;;;;;;517549;28;1593;-86
2022/04/13 01:00:17;;;;;;;5.07;3.20;;;;;;;;;;519032;28;1492;-86
2022/04/13 01:00:38;;;;;;;5.03;3.13;;;;;;;;;;520193;28;1603;-86
2022/04/13 01:00:54;;;;;;;5.43;3.20;;;;;;;;;;520732;28;1440;-86
2022/04/13 01:01:10;;;;;;;5.25;3.20;;;;;;;;;;520701;28;1465;-87
2022/04/13 01:01:26;;;;;;;4.90;3.03;;;;;;;;;;520234;28;1539;-86
2022/04/13 01:01:49;;;;;;;5.20;3.30;;;;;;;;;;517977;28;1461;-86
2022/04/13 01:02:08;;;;;;;5.65;3.25;;;;;;;;;;518739;28;1765;-86
2022/04/13 01:02:27;;;;;;;5.30;3.13;;;;;;;;;;519613;28;1690;-85
2022/04/13 01:02:43;;;;;;;4.18;3.05;;;;;;;;;;519883;28;1697;-86
2022/04/13 01:03:00;;;;;;;3.85;2.90;;;;;;;;;;521081;28;1544;-86
2022/04/13 01:03:19;;;;;;;4.13;3.00;;;;;;;;;;517980;28;1260;-86
2022/04/13 01:03:36;;;;;;;4.45;3.00;;;;;;;;;;518163;28;1479;-86
2022/04/13 01:03:52;;;;;;;4.10;3.13;;;;;;;;;;519735;28;1644;-86
2022/04/13 01:04:11;;;;;;;4.70;3.35;;;;;;;;;;519387;28;1424;-86
2022/04/13 01:04:31;;;;;;;4.55;3.40;;;;;;;;;;520767;28;1314;-86
2022/04/13 01:04:46;;;;;;;4.85;3.20;;;;;;;;;;521322;28;1484;-86
2022/04/13 01:05:04;;;;;;;4.47;3.10;;;;;;;;;;519883;28;1159;-86
2022/04/13 01:05:20;;;;;;;4.80;3.00;;;;;;;;;;519038;28;1534;-87
2022/04/13 01:05:36;;;;;;;4.80;3.05;;;;;;;;;;521387;28;1675;-87
2022/04/13 01:05:52;;;;;;;4.35;3.15;;;;;;;;;;521586;28;1519;-87
2022/04/13 01:06:09;;;;;;;4.32;3.30;;;;;;;;;;520949;28;1438;-87
2022/04/13 01:06:27;;;;;;;4.03;3.15;;;;;;;;;;522781;28;1502;-86
2022/04/13 01:06:43;;;;;;;4.13;3.00;;;;;;;;;;524722;28;1692;-85
2022/04/13 01:07:01;;;;;;;4.65;3.05;;;;;;;;;;524343;28;1498;-85
2022/04/13 01:07:17;;;;;;;4.47;3.10;;;;;;;;;;521443;28;1497;-86
2022/04/13 01:07:34;;;;;;;3.90;3.00;;;;;;;;;;519324;28;1477;-86
2022/04/13 01:07:51;;;;;;;4.03;2.92;;;;;;;;;;518416;28;1590;-86
2022/04/13 01:08:08;;;;;;;4.20;3.05;;;;;;;;;;519274;28;1573;-86
2022/04/13 01:08:27;;;;;;;5.13;3.17;;;;;;;;;;519080;28;1546;-86
2022/04/13 01:08:43;;;;;;;5.88;3.30;;;;;;;;;;519608;28;1439;-86
2022/04/13 01:08:59;;;;;;;6.00;3.35;;;;;;;;;;519473;28;1576;-87
2022/04/13 01:09:15;;;;;;;5.70;3.20;;;;;;;;;;519089;28;1555;-88
2022/04/13 01:09:34;;;;;;;5.00;2.95;;;;;;;;;;517217;28;1472;-86
2022/04/13 01:09:50;;;;;;;6.25;3.30;;;;;;;;;;517382;28;1467;-86
2022/04/13 01:10:07;;;;;;;5.90;3.50;;;;;;;;;;517611;28;1551;-87
2022/04/13 01:10:23;;;;;;;5.25;3.30;;;;;;;;;;517059;28;1418;-86
2022/04/13 01:10:40;;;;;;;5.07;3.22;;;;;;;;;;518792;28;1442;-86
2022/04/13 01:10:58;;;;;;;5.00;3.28;;;;;;;;;;520925;28;1987;-86
2022/04/13 01:11:14;;;;;;;4.65;3.35;;;;;;;;;;521365;28;1401;-86
2022/04/13 01:11:30;;;;;;;4.68;3.30;;;;;;;;;;519699;28;1283;-86
2022/04/13 01:11:46;;;;;;;4.60;3.20;;;;;;;;;;521265;28;1493;-86
2022/04/13 01:12:01;;;;;;;4.20;3.20;;;;;;;;;;521268;28;1541;-87
2022/04/13 01:12:17;;;;;;;4.78;3.10;;;;;;;;;;518993;28;1474;-86
2022/04/13 01:12:34;;;;;;;5.10;3.05;;;;;;;;;;519613;28;1446;-87
2022/04/13 01:12:49;;;;;;;4.63;2.95;;;;;;;;;;520652;28;1529;-86
2022/04/13 01:13:05;;;;;;;4.83;3.00;;;;;;;;;;519641;28;1492;-87
2022/04/13 01:13:21;;;;;;;4.87;3.10;;;;;;;;;;517632;28;1338;-86
2022/04/13 01:13:39;;;;;;;4.85;3.20;;;;;;;;;;517381;28;1520;-86
2022/04/13 01:13:55;;;;;;;5.32;3.08;;;;;;;;;;519609;28;1519;-87
2022/04/13 01:14:11;;;;;;;4.75;3.08;;;;;;;;;;521021;28;1720;-86
2022/04/13 01:14:27;;;;;;;4.13;3.05;;;;;;;;;;521724;28;1511;-86
2022/04/13 01:14:42;;;;;;;4.00;3.10;;;;;;;;;;519278;28;1550;-86
2022/04/13 01:14:58;;;;;;;4.20;3.07;;;;;;;;;;521845;28;1827;-86
2022/04/13 01:15:13;;;;;;;4.30;2.83;;;;;;;;;;523271;28;1540;-86
2022/04/13 01:15:29;;;;;;;4.53;2.90;;;;;;;;;;520343;28;1709;-86
2022/04/13 01:15:44;;;;;;;4.23;3.10;;;;;;;;;;522417;28;1528;-86
2022/04/13 01:15:59;;;;;;;4.43;3.05;;;;;;;;;;521809;28;1612;-86
2022/04/13 01:16:16;;;;;;;5.37;3.20;;;;;;;;;;523938;28;1680;-86
2022/04/13 01:16:34;;;;;;;5.53;3.13;;;;;;;;;;521595;28;1479;-87
2022/04/13 01:16:49;;;;;;;5.28;3.13;;;;;;;;;;519467;28;1471;-86
2022/04/13 01:17:06;;;;;;;4.82;3.30;;;;;;;;;;517232;28;1430;-88
2022/04/13 01:17:23;;;;;;;4.72;3.20;;;;;;;;;;518618;28;1671;-86
2022/04/13 01:17:40;;;;;;;4.40;3.00;;;;;;;;;;520090;28;1514;-86
2022/04/13 01:17:56;;;;;;;5.10;3.10;;;;;;;;;;519345;28;1615;-87
2022/04/13 01:18:13;;;;;;;5.57;3.13;;;;;;;;;;516779;28;1553;-87
2022/04/13 01:18:29;;;;;;;5.85;3.10;;;;;;;;;;518641;28;1532;-87
2022/04/13 01:18:44;;;;;;;6.22;3.20;;;;;;;;;;519150;28;1564;-87
2022/04/13 01:18:59;;;;;;;5.00;3.20;;;;;;;;;;519155;28;1509;-86
2022/04/13 01:19:17;;;;;;;5.33;3.30;;;;;;;;;;518266;28;1390;-86
2022/04/13 01:19:32;;;;;;;5.32;3.08;;;;;;;;;;518208;28;1469;-86
2022/04/13 01:19:49;;;;;;;5.30;3.10;;;;;;;;;;519010;28;1623;-87
2022/04/13 01:20:05;;;;;;;5.40;3.35;;;;;;;;;;520467;28;1467;-87
2022/04/13 01:20:23;;;;;;;5.68;3.33;;;;;;;;;;522017;28;1390;-86
2022/04/13 01:20:48;;;;;;;6.32;3.00;;;;;;;;;;521015;28;1652;-86
2022/04/13 01:21:05;;;;;;;7.25;3.08;;;;;;;;;;521822;28;1534;-86
2022/04/13 01:21:58;;;;;;;6.57;3.38;;;;;;;;;;520464;28;1527;-86
2022/04/13 01:22:17;;;;;;;7.72;3.35;;;;;;;;;;523107;28;1665;-87
2022/04/13 01:22:33;;;;;;;5.53;3.20;;;;;;;;;;522740;28;1298;-86
2022/04/13 01:22:48;;;;;;;4.05;3.15;;;;;;;;;;523687;28;1442;-87
2022/04/13 01:23:04;;;;;;;5.40;3.20;;;;;;;;;;523257;28;1393;-86
2022/04/13 01:23:23;;;;;;;5.57;3.15;;;;;;;;;;523633;28;1432;-86
2022/04/13 01:23:39;;;;;;;4.22;3.17;;;;;;;;;;522600;28;1672;-86
2022/04/13 01:23:55;;;;;;;3.97;3.22;;;;;;;;;;522711;28;1520;-86
2022/04/13 01:24:12;;;;;;;3.90;3.10;;;;;;;;;;522356;28;1430;-86
2022/04/13 01:24:29;;;;;;;3.75;3.05;;;;;;;;;;521807;28;1555;-86
2022/04/13 01:24:45;;;;;;;4.18;2.95;;;;;;;;;;521569;28;1514;-86
2022/04/13 01:25:01;;;;;;;4.20;3.25;;;;;;;;;;522697;28;1578;-86
2022/04/13 01:25:16;;;;;;;4.70;3.40;;;;;;;;;;522760;28;1824;-85
2022/04/13 01:25:32;;;;;;;4.73;3.27;;;;;;;;;;521082;28;1536;-86
2022/04/13 01:25:49;;;;;;;4.20;3.22;;;;;;;;;;518573;28;1310;-86
2022/04/13 01:26:04;;;;;;;5.05;3.33;;;;;;;;;;519381;28;1646;-86
2022/04/13 01:26:19;;;;;;;6.77;3.30;;;;;;;;;;519844;28;1413;-86
2022/04/13 01:26:35;;;;;;;6.33;3.30;;;;;;;;;;521143;28;1511;-86
2022/04/13 01:26:51;;;;;;;4.68;3.30;;;;;;;;;;520700;28;1359;-86
2022/04/13 01:27:07;;;;;;;5.55;3.40;;;;;;;;;;519010;28;1430;-86
2022/04/13 01:27:22;;;;;;;5.00;3.30;;;;;;;;;;519063;28;1439;-86
2022/04/13 01:27:38;;;;;;;4.07;3.20;;;;;;;;;;518244;28;1640;-87
2022/04/13 01:27:53;;;;;;;4.63;3.40;;;;;;;;;;519461;28;1439;-86
2022/04/13 01:28:09;;;;;;;4.63;3.17;;;;;;;;;;519530;28;1494;-86
2022/04/13 01:28:24;;;;;;;5.10;3.25;;;;;;;;;;518169;28;1411;-86
2022/04/13 01:28:42;;;;;;;5.97;3.30;;;;;;;;;;519335;28;1861;-86
2022/04/13 01:28:58;;;;;;;5.78;3.25;;;;;;;;;;517586;28;1693;-86
2022/04/13 01:29:13;;;;;;;5.07;3.30;;;;;;;;;;519473;28;1455;-87
2022/04/13 01:29:29;;;;;;;5.53;3.30;;;;;;;;;;520395;28;1683;-87
2022/04/13 01:29:45;;;;;;;7.55;3.42;;;;;;;;;;522002;28;1383;-86
2022/04/13 01:30:05;;;;;;;6.47;3.53;;;;;;;;;;521865;28;1752;-86
2022/04/13 01:30:23;;;;;;;4.68;3.38;;;;;;;;;;520974;28;1428;-88
2022/04/13 01:30:38;;;;;;;4.40;3.22;;;;;;;;;;521396;28;1634;-86
2022/04/13 01:30:54;;;;;;;5.43;3.30;;;;;;;;;;522745;28;1922;-86
2022/04/13 01:31:09;;;;;;;7.72;3.50;;;;;;;;;;521517;28;1363;-86
2022/04/13 01:31:25;;;;;;;8.37;3.40;;;;;;;;;;519635;28;1486;-87
2022/04/13 01:31:40;;;;;;;6.90;3.40;;;;;;;;;;519739;28;1446;-85
2022/04/13 01:31:57;;;;;;;5.97;3.37;;;;;;;;;;520817;28;1470;-86
2022/04/13 01:32:13;;;;;;;5.05;3.20;;;;;;;;;;520514;28;1745;-86
2022/04/13 01:32:29;;;;;;;4.63;3.10;;;;;;;;;;519922;28;1520;-86
2022/04/13 01:32:45;;;;;;;4.80;3.03;;;;;;;;;;519474;28;1641;-86
2022/04/13 01:33:01;;;;;;;4.05;3.08;;;;;;;;;;518702;28;1439;-86
2022/04/13 01:33:17;;;;;;;4.60;3.10;;;;;;;;;;518048;28;1529;-86
2022/04/13 01:33:33;;;;;;;5.72;3.20;;;;;;;;;;519109;28;1390;-87
2022/04/13 01:33:49;;;;;;;5.80;3.40;;;;;;;;;;518614;28;1542;-86
2022/04/13 01:34:04;;;;;;;4.60;3.28;;;;;;;;;;519565;28;1418;-87
2022/04/13 01:34:20;;;;;;;5.20;3.37;;;;;;;;;;518832;28;1453;-86
2022/04/13 01:34:36;;;;;;;5.60;3.38;;;;;;;;;;519564;28;1371;-86
2022/04/13 01:34:52;;;;;;;5.55;3.28;;;;;;;;;;519395;28;1487;-86
2022/04/13 01:35:08;;;;;;;6.07;3.33;;;;;;;;;;521378;28;1526;-86
2022/04/13 01:35:23;;;;;;;5.35;3.30;;;;;;;;;;521449;28;1391;-86
2022/04/13 01:35:39;;;;;;;4.93;3.17;;;;;;;;;;521162;28;1491;-87
2022/04/13 01:36:00;;;;;;;4.85;3.10;;;;;;;;;;521609;28;1740;-87
2022/04/13 01:36:16;;;;;;;4.40;3.10;;;;;;;;;;518719;28;1467;-88
2022/04/13 01:36:35;;;;;;;5.10;3.30;;;;;;;;;;518664;28;1375;-87
2022/04/13 01:36:51;;;;;;;5.40;3.15;;;;;;;;;;516518;28;1373;-86
2022/04/13 01:37:06;;;;;;;5.22;3.20;;;;;;;;;;518760;28;1954;-86
2022/04/13 01:37:23;;;;;;;5.17;3.20;;;;;;;;;;516590;28;1291;-86
2022/04/13 01:37:38;;;;;;;6.75;3.28;;;;;;;;;;519962;28;1394;-86
2022/04/13 01:37:53;;;;;;;6.23;3.07;;;;;;;;;;519602;28;1424;-86
2022/04/13 01:38:09;;;;;;;4.40;2.93;;;;;;;;;;520717;28;1445;-87
2022/04/13 01:38:24;;;;;;;4.75;3.25;;;;;;;;;;522547;28;1466;-86
2022/04/13 01:38:39;;;;;;;5.60;3.40;;;;;;;;;;521129;28;1752;-87
2022/04/13 01:38:55;;;;;;;6.47;3.33;;;;;;;;;;521224;28;1497;-86
2022/04/13 01:39:10;;;;;;;6.27;3.30;;;;;;;;;;518614;28;1488;-86
2022/04/13 01:39:27;;;;;;;4.47;3.30;;;;;;;;;;519354;28;1717;-86
2022/04/13 01:39:44;;;;;;;4.53;3.13;;;;;;;;;;519068;28;1494;-86
2022/04/13 01:40:01;;;;;;;5.53;3.03;;;;;;;;;;521130;28;1579;-86
2022/04/13 01:40:16;;;;;;;4.55;2.95;;;;;;;;;;523031;28;1453;-86
2022/04/13 01:40:31;;;;;;;4.23;3.20;;;;;;;;;;521189;28;1780;-86
2022/04/13 01:40:49;;;;;;;5.05;3.20;;;;;;;;;;519486;28;1513;-87
2022/04/13 01:41:04;;;;;;;4.97;3.25;;;;;;;;;;519604;28;1538;-87
2022/04/13 01:41:20;;;;;;;5.13;3.13;;;;;;;;;;519550;28;1557;-86
2022/04/13 01:41:36;;;;;;;5.57;3.10;;;;;;;;;;522000;28;1532;-86